Terminal Aerodrome Forecast
Issued by NWS Mt. Holly, NJ

Home | Current Version | Previous Version | Text Only | Print | Product List | Glossary On
Versions: 1 2 3 4 5 6 7 8 9 10 11 12 13 14 15 16 17 18 19 20 21
000
FTUS41 KPHI 021725
TAFPHL
TAF
KPHL 021725Z 0218/0324 23006KT P6SM SCT035 BKN250
     FM022000 31008KT P6SM SCT050 SCT250
     FM030000 VRB04KT P6SM SCT250
      TEMPO 0308/0312 3SM BR SCT004
     FM031500 36008KT P6SM SCT040 SCT250=

USA.gov is the U.S. government's official web portal to all federal, state and local government web resources and services.